Saint Joseph, Wisconsin
Current Conditions -  °F | °C
As of 9:51 AM on Saturday 25 Oct 2014 (Local Time) from K21D Reporting Station
Clear Clear  
Wind Chill: 54°   Ceiling: Unl
Heat Index: 54°   Visibility: 10mi
Dew Point: 36°   Wind: 12mph
Humidity: 51%   Direction: 320°NW
Pressure: 30.04"   Gusts: NA
Location:  45.07°N, 92.75°W
Report Text: K21D 251451Z AUTO 32010KT 10SM CLR 12/02 A3004 RMK AO2
Loading
Personal Weather Stations






























Interactive Weather Map
Tropical Storm Tracking
New forecast layout! Learn more

10-Day Weather Forecast

Advertisements
Track Severe Weather on mobile